Time;durP1;ratioP1;P1;durP2;ratioP2;P2;SDS_P1;SDS_P2;PMS_P1;PMS_P2;Temp;Humidity;BMP_temperature;BMP_pressure;BME280_temperature;BME280_humidity;BME280_pressure;Samples;Min_cycle;Max_cycle;Signal;HPM_P1;HPM_P2
2022/11/04 00:01:33;;;;;;;10.82;4.50;;;;;;;8.61;100.00;154690.25;5002087;28;20034;-74
2022/11/04 00:03:59;;;;;;;13.65;4.60;;;;;;;8.77;100.00;154732.53;5017226;28;20041;-74
2022/11/04 00:06:25;;;;;;;14.05;5.10;;;;;;;8.70;100.00;154714.66;5001050;28;20049;-74
2022/11/04 00:08:53;;;;;;;12.88;4.35;;;;;;;8.67;100.00;154705.66;5002709;28;20108;-74
2022/11/04 00:14:05;;;;;;;16.55;4.97;;;;;;;8.67;100.00;154705.66;5001802;28;20654;-74
2022/11/04 00:19:15;;;;;;;11.25;4.80;;;;;;;8.63;100.00;154695.44;5016211;28;20045;-74
2022/11/04 00:30:07;;;;;;;16.42;5.15;;;;;;;8.63;100.00;154696.69;5003298;28;20117;-75
2022/11/04 00:35:19;;;;;;;13.60;5.22;;;;;;;8.72;100.00;154719.78;5004451;28;20048;-74
2022/11/04 00:37:44;;;;;;;12.13;5.07;;;;;;;8.72;100.00;154719.78;4988459;28;20140;-73
2022/11/04 00:40:14;;;;;;;13.65;5.38;;;;;;;8.72;100.00;154718.44;5011338;28;20080;-74
2022/11/04 00:42:43;;;;;;;15.10;4.72;;;;;;;8.76;100.00;154728.75;4987502;28;20491;-74
2022/11/04 00:45:09;;;;;;;9.70;5.30;;;;;;;8.80;100.00;154738.97;5002103;28;20399;-74
2022/11/04 00:47:35;;;;;;;14.82;5.40;;;;;;;8.76;100.00;154730.00;5005944;28;20030;-73
2022/11/04 00:50:01;;;;;;;10.55;4.95;;;;;;;8.73;100.00;154722.31;4988519;28;20042;-72
2022/11/04 00:52:27;;;;;;;10.05;4.38;;;;;;;8.73;100.00;154721.03;4988425;28;20053;-73
2022/11/04 00:54:52;;;;;;;12.02;5.00;;;;;;;8.74;100.00;154724.88;4985870;28;20047;-74
2022/11/04 00:57:18;;;;;;;13.60;5.20;;;;;;;8.76;100.00;154730.00;4983877;28;20065;-74
2022/11/04 00:59:44;;;;;;;14.32;5.47;;;;;;;8.83;100.00;154745.38;5005776;28;20122;-73
2022/11/04 01:02:11;;;;;;;10.50;4.85;;;;;;;8.87;100.00;154755.63;5003908;28;20109;-73
2022/11/04 01:04:37;;;;;;;12.10;5.38;;;;;;;8.83;100.00;154746.66;4982634;28;20824;-73
2022/11/04 01:07:03;;;;;;;10.98;5.53;;;;;;;8.81;100.00;154741.53;5000057;28;20794;-73
2022/11/04 01:09:29;;;;;;;9.32;5.00;;;;;;;8.86;100.00;154753.06;4989539;28;20037;-72
2022/11/04 01:11:56;;;;;;;15.82;5.57;;;;;;;8.89;100.00;154760.75;4984867;28;20229;-72
2022/11/04 01:14:22;;;;;;;13.30;5.47;;;;;;;8.88;100.00;154759.47;4981628;28;20041;-73
2022/11/04 01:16:50;;;;;;;15.07;5.32;;;;;;;8.88;100.00;154759.47;4967576;28;20061;-73
2022/11/04 01:19:17;;;;;;;10.90;5.32;;;;;;;8.89;100.00;154760.75;5001204;28;20252;-73
2022/11/04 01:21:43;;;;;;;10.68;5.28;;;;;;;8.94;100.00;154774.84;4987225;28;20388;-73
2022/11/04 01:24:09;;;;;;;13.10;5.07;;;;;;;8.91;100.00;154767.19;4999438;28;20057;-73
2022/11/04 01:26:35;;;;;;;13.65;5.25;;;;;;;8.91;100.00;154767.19;4983897;28;20133;-72
2022/11/04 01:29:01;;;;;;;12.38;5.00;;;;;;;8.98;100.00;154783.81;5002027;28;20705;-73
2022/11/04 01:31:29;;;;;;;11.50;5.03;;;;;;;9.00;100.00;154787.66;4994271;28;20088;-73
2022/11/04 01:33:56;;;;;;;9.52;4.80;;;;;;;8.99;100.00;154785.13;5005782;28;20846;-73
2022/11/04 01:36:23;;;;;;;10.15;4.72;;;;;;;9.00;100.00;154788.94;4966849;28;20034;-73
2022/11/04 01:38:49;;;;;;;14.10;5.63;;;;;;;9.00;100.00;154788.94;4980754;28;20048;-72
2022/11/04 01:41:27;;;;;;;15.07;5.13;;;;;;;9.09;100.00;154810.75;4997417;28;20041;-73
2022/11/04 01:43:57;;;;;;;14.43;5.38;;;;;;;9.05;100.00;154801.75;4985832;28;20068;-72
2022/11/04 01:46:36;;;;;;;10.02;4.80;;;;;;;9.02;100.00;154792.78;4990743;28;20344;-73
2022/11/04 01:49:22;;;;;;;11.50;5.30;;;;;;;9.08;100.00;154809.47;4989650;28;20045;-73
2022/11/04 01:51:53;;;;;;;11.88;5.30;;;;;;;9.11;100.00;154815.88;4990738;28;20104;-72
2022/11/04 01:54:19;;;;;;;14.82;5.82;;;;;;;9.09;100.00;154812.00;4990071;28;20057;-72
2022/11/04 01:56:47;;;;;;;17.73;6.05;;;;;;;9.12;100.00;154818.44;4991010;28;20120;-72
2022/11/04 01:59:25;;;;;;;9.10;5.07;;;;;;;9.12;100.00;154818.44;4990317;28;20521;-73
2022/11/04 02:01:51;;;;;;;10.30;5.32;;;;;;;9.13;100.00;154820.97;4964737;28;20112;-73
2022/11/04 02:04:26;;;;;;;9.15;4.97;;;;;;;9.11;100.00;154817.13;4987975;28;20096;-73
2022/11/04 02:06:58;;;;;;;12.80;5.57;;;;;;;9.10;100.00;154813.31;5004248;28;20045;-73
2022/11/04 02:09:27;;;;;;;11.50;5.90;;;;;;;9.10;100.00;154814.59;4966552;28;20029;-73
2022/11/04 02:14:39;;;;;;;11.45;5.68;;;;;;;9.24;100.00;154847.91;5023628;28;20040;-73
2022/11/04 02:17:28;;;;;;;12.93;5.82;;;;;;;9.37;100.00;154879.97;5006551;28;20092;-73
2022/11/04 02:20:15;;;;;;;12.57;5.28;;;;;;;9.31;100.00;154867.13;5000796;28;20180;-72
2022/11/04 02:23:06;;;;;;;10.95;5.57;;;;;;;9.30;100.00;154864.56;5026471;28;20029;-73
2022/11/04 02:26:02;;;;;;;8.68;4.93;;;;;;;9.35;100.00;154877.38;5002663;28;20037;-74
2022/11/04 02:28:53;;;;;;;12.00;5.03;;;;;;;9.40;100.00;154887.63;5004793;28;20108;-73
2022/11/04 02:31:32;;;;;;;10.48;5.95;;;;;;;9.33;100.00;154872.25;5005661;28;20045;-73
2022/11/04 02:34:17;;;;;;;10.68;5.43;;;;;;;9.33;100.00;154872.25;5006736;28;20121;-72
2022/11/04 02:37:02;;;;;;;10.18;5.10;;;;;;;9.33;100.00;154872.25;5004948;28;20034;-73
2022/11/04 02:39:48;;;;;;;7.82;5.10;;;;;;;9.31;100.00;154867.13;4987820;28;20373;-73
2022/11/04 02:42:24;;;;;;;11.55;4.78;;;;;;;9.38;100.00;154883.81;4980266;28;20065;-73
2022/11/04 02:45:32;;;;;;;7.70;4.55;;;;;;;9.51;100.00;154915.84;4988194;28;20125;-73
2022/11/04 02:48:27;;;;;;;6.57;4.47;;;;;;;9.47;100.00;154906.84;4960838;28;20503;-73
2022/11/04 02:51:31;;;;;;;11.10;5.15;;;;;;;9.43;100.00;154895.34;4991761;28;20657;-75
2022/11/04 02:54:10;;;;;;;9.70;5.30;;;;;;;9.43;100.00;154896.59;4971713;28;20423;-74
2022/11/04 02:56:43;;;;;;;10.88;5.15;;;;;;;9.43;100.00;154895.34;5001633;28;20041;-73
2022/11/04 02:59:21;;;;;;;8.75;4.60;;;;;;;9.51;100.00;154915.84;4992243;28;20042;-73
2022/11/04 03:01:51;;;;;;;8.85;5.20;;;;;;;9.52;100.00;154918.41;4986175;28;20037;-73
2022/11/04 03:04:33;;;;;;;11.07;4.68;;;;;;;9.48;100.00;154909.44;5023594;28;20044;-74
2022/11/04 03:07:02;;;;;;;7.97;4.90;;;;;;;9.48;100.00;154908.19;5007280;28;20455;-74
2022/11/04 03:09:29;;;;;;;10.55;4.90;;;;;;;9.62;100.00;154942.78;4999126;28;20046;-74
2022/11/04 03:12:02;;;;;;;8.15;5.03;;;;;;;9.62;100.00;154942.78;5007227;28;20052;-74
2022/11/04 03:14:58;;;;;;;8.07;4.68;;;;;;;9.67;100.00;154956.88;4988043;28;20801;-74
2022/11/04 03:17:35;;;;;;;11.60;5.10;;;;;;;9.70;100.00;154963.28;4973342;28;20041;-74
2022/11/04 03:20:06;;;;;;;8.57;4.85;;;;;;;9.68;100.00;154959.47;5007638;28;20038;-74
2022/11/04 03:22:35;;;;;;;10.48;5.72;;;;;;;9.68;100.00;154959.47;5009054;28;20041;-73
2022/11/04 03:25:04;;;;;;;8.77;5.55;;;;;;;9.67;100.00;154955.59;5007099;28;20041;-73
2022/11/04 03:28:00;;;;;;;13.10;5.55;;;;;;;9.66;100.00;154954.34;5006672;28;20132;-73
2022/11/04 03:30:36;;;;;;;11.07;5.50;;;;;;;9.70;100.00;154964.59;5007741;28;20052;-73
2022/11/04 03:33:05;;;;;;;9.52;5.78;;;;;;;9.66;100.00;154953.03;5023892;28;20121;-73
2022/11/04 03:35:31;;;;;;;9.13;5.85;;;;;;;9.67;100.00;154956.88;4974285;28;20046;-73
2022/11/04 03:37:57;;;;;;;10.93;5.82;;;;;;;9.69;100.00;154960.75;5004696;28;20043;-74
2022/11/04 03:40:24;;;;;;;10.60;6.43;;;;;;;9.64;100.00;154949.16;5010513;28;20091;-73
2022/11/04 03:42:59;;;;;;;8.30;6.25;;;;;;;9.69;100.00;154962.00;5004335;28;20041;-73
2022/11/04 03:45:25;;;;;;;10.95;5.68;;;;;;;9.65;100.00;154951.75;5022638;28;20041;-73
2022/11/04 03:47:51;;;;;;;12.32;6.07;;;;;;;9.70;100.00;154964.59;5023246;28;20061;-72
2022/11/04 03:50:28;;;;;;;11.00;6.07;;;;;;;9.70;100.00;154963.28;4990693;28;20045;-73
2022/11/04 03:52:54;;;;;;;10.10;6.47;;;;;;;9.67;100.00;154955.59;4991747;28;20041;-74
2022/11/04 03:55:27;;;;;;;11.40;6.25;;;;;;;9.65;100.00;154950.47;4973760;28;20033;-74
2022/11/04 03:58:00;;;;;;;11.35;6.95;;;;;;;9.67;100.00;154956.88;4987512;28;20046;-74
2022/11/04 04:00:32;;;;;;;8.93;6.28;;;;;;;9.67;100.00;154956.88;4989979;28;20040;-74
2022/11/04 04:03:14;;;;;;;12.40;6.57;;;;;;;9.70;100.00;154963.28;5006065;28;20121;-74
2022/11/04 04:05:54;;;;;;;10.73;6.35;;;;;;;9.68;100.00;154958.16;5004555;28;20091;-74
2022/11/04 04:08:47;;;;;;;10.18;6.20;;;;;;;9.66;100.00;154954.34;4991134;28;20033;-74
2022/11/04 04:11:34;;;;;;;10.48;7.10;;;;;;;9.66;100.00;154954.34;5004328;28;20488;-74
2022/11/04 04:14:37;;;;;;;11.43;6.30;;;;;;;9.74;100.00;154974.84;4990970;28;20411;-74
2022/11/04 04:17:06;;;;;;;10.65;6.70;;;;;;;9.72;100.00;154968.44;5000159;28;20767;-74
2022/11/04 04:19:33;;;;;;;11.23;6.90;;;;;;;9.70;100.00;154963.28;4999222;28;20116;-74
2022/11/04 04:22:08;;;;;;;12.65;7.25;;;;;;;9.69;100.00;154960.75;4988982;28;20495;-73
2022/11/04 04:27:31;;;;;;;11.23;8.00;;;;;;;9.78;100.00;154983.81;4991126;28;20026;-74
2022/11/04 04:30:00;;;;;;;9.73;6.93;;;;;;;9.88;100.00;155009.44;4989858;28;20042;-74
2022/11/04 04:32:28;;;;;;;10.82;6.18;;;;;;;9.91;100.00;155015.88;5005325;28;20396;-74
2022/11/04 04:37:41;;;;;;;9.15;5.95;;;;;;;9.88;100.00;155008.19;5007841;28;20764;-73
2022/11/04 04:45:43;;;;;;;7.07;5.30;;;;;;;9.88;100.00;155009.44;5007749;28;20135;-73
2022/11/04 04:48:11;;;;;;;6.32;5.03;;;;;;;9.94;100.00;155023.56;4990690;28;20044;-72
2022/11/04 04:50:43;;;;;;;7.30;4.25;;;;;;;9.88;100.00;155009.44;5006819;28;20041;-73
2022/11/04 04:53:08;;;;;;;8.10;4.82;;;;;;;9.88;100.00;155009.44;5006650;28;20495;-73
2022/11/04 04:55:34;;;;;;;6.68;4.45;;;;;;;9.85;100.00;155000.47;4983278;28;20042;-73
2022/11/04 04:57:59;;;;;;;6.55;4.10;;;;;;;9.83;100.00;154995.34;4990818;28;20044;-73
2022/11/04 05:00:25;;;;;;;6.15;3.65;;;;;;;9.75;100.00;154977.38;4991132;28;20065;-73
2022/11/04 05:02:51;;;;;;;5.20;3.30;;;;;;;9.77;100.00;154979.97;4989544;28;20511;-73
2022/11/04 05:05:17;;;;;;;5.47;3.17;;;;;;;9.75;100.00;154976.09;5005577;28;20187;-72
2022/11/04 05:07:44;;;;;;;5.30;2.67;;;;;;;9.78;100.00;154982.56;5027177;28;20037;-73
2022/11/04 05:10:12;;;;;;;3.47;2.92;;;;;;;9.74;100.00;154973.56;4997558;28;20026;-73
2022/11/04 05:15:24;;;;;;;4.78;2.35;;;;;;;9.82;100.00;154992.81;5017116;28;20041;-72
2022/11/04 05:17:58;;;;;;;4.40;2.30;;;;;;;9.77;100.00;154981.25;4980287;28;20045;-73
2022/11/04 05:20:24;;;;;;;4.07;2.25;;;;;;;9.56;100.00;154928.66;5011450;28;20066;-73
2022/11/04 05:22:50;;;;;;;2.85;2.10;;;;;;;9.57;100.00;154931.25;4996352;28;20045;-72
2022/11/04 05:25:16;;;;;;;3.45;2.30;;;;;;;9.56;100.00;154928.66;4992324;28;20039;-72
2022/11/04 05:27:41;;;;;;;2.55;2.10;;;;;;;9.71;100.00;154967.13;4993519;28;20512;-73
2022/11/04 05:30:08;;;;;;;2.33;2.13;;;;;;;9.67;100.00;154956.88;4992840;28;20041;-73
2022/11/04 05:32:34;;;;;;;3.03;2.25;;;;;;;9.49;100.00;154912.03;4989109;28;20038;-73
2022/11/04 05:34:59;;;;;;;4.55;2.20;;;;;;;9.49;100.00;154910.72;5005244;28;20046;-73
2022/11/04 05:37:25;;;;;;;2.30;2.10;;;;;;;9.54;100.00;154924.81;4992834;28;20083;-73
2022/11/04 05:39:51;;;;;;;3.50;2.42;;;;;;;9.57;100.00;154931.25;5009002;28;20069;-72
2022/11/04 05:42:17;;;;;;;2.75;2.17;;;;;;;9.54;100.00;154924.81;5011305;28;20406;-72
2022/11/04 05:44:42;;;;;;;2.72;2.50;;;;;;;9.59;100.00;154935.06;5009067;28;20044;-73
2022/11/04 05:47:08;;;;;;;2.67;2.35;;;;;;;9.65;100.00;154951.75;4990254;28;20399;-73
2022/11/04 05:49:34;;;;;;;4.05;2.20;;;;;;;9.70;100.00;154963.28;4974121;28;20046;-72
2022/11/04 05:51:59;;;;;;;3.53;2.55;;;;;;;9.68;100.00;154958.16;5002558;28;20045;-75
2022/11/04 05:54:25;;;;;;;4.45;2.72;;;;;;;9.60;100.00;154937.66;5009197;28;20034;-72
2022/11/04 05:56:51;;;;;;;2.42;2.20;;;;;;;9.67;100.00;154955.59;4991799;28;20038;-72
2022/11/04 05:59:17;;;;;;;2.88;2.38;;;;;;;9.65;100.00;154951.75;4991099;28;20042;-72
2022/11/04 06:01:43;;;;;;;4.22;2.50;;;;;;;9.65;100.00;154951.75;4990524;28;20026;-73
2022/11/04 06:04:17;;;;;;;5.10;2.38;;;;;;;9.64;100.00;154949.16;4990775;28;20038;-73
2022/11/04 06:06:43;;;;;;;2.60;2.20;;;;;;;9.69;100.00;154960.75;5005120;28;20089;-73
2022/11/04 06:09:09;;;;;;;2.78;2.20;;;;;;;9.57;100.00;154931.25;4992343;28;20558;-72
2022/11/04 06:11:36;;;;;;;3.70;2.30;;;;;;;9.41;100.00;154891.50;4989724;28;20034;-73
2022/11/04 06:14:02;;;;;;;2.47;2.05;;;;;;;9.25;100.00;154851.78;4979166;28;20099;-74
2022/11/04 06:16:28;;;;;;;4.03;2.30;;;;;;;9.38;100.00;154882.50;4993183;28;20503;-73
2022/11/04 06:18:54;;;;;;;2.50;2.30;;;;;;;9.39;100.00;154885.09;4975805;28;20121;-73
2022/11/04 06:21:29;;;;;;;2.78;2.25;;;;;;;9.48;100.00;154909.44;4999444;28;20034;-73
2022/11/04 06:23:56;;;;;;;3.92;2.20;;;;;;;9.49;100.00;154910.72;5007630;28;20403;-72
2022/11/04 06:26:23;;;;;;;2.70;2.30;;;;;;;9.48;100.00;154908.19;4992215;28;20151;-73
2022/11/04 06:28:49;;;;;;;3.08;2.58;;;;;;;9.52;100.00;154919.69;4991258;28;20025;-73
2022/11/04 06:31:15;;;;;;;2.75;2.40;;;;;;;9.54;100.00;154924.81;5007472;28;20376;-72
2022/11/04 06:33:41;;;;;;;3.25;2.38;;;;;;;9.55;100.00;154926.13;5007512;28;20040;-72
2022/11/04 06:36:11;;;;;;;2.92;2.70;;;;;;;9.58;100.00;154933.78;5023357;28;20038;-72
2022/11/04 06:38:37;;;;;;;3.55;2.88;;;;;;;9.61;100.00;154941.50;5012438;28;20048;-72
2022/11/04 06:41:09;;;;;;;2.58;2.38;;;;;;;9.60;100.00;154938.91;5005889;28;20048;-72
2022/11/04 06:43:35;;;;;;;3.00;2.60;;;;;;;9.72;100.00;154968.44;4988654;28;20748;-72
2022/11/04 06:46:02;;;;;;;3.10;2.80;;;;;;;9.69;100.00;154960.75;4967410;28;20124;-72
2022/11/04 06:48:32;;;;;;;2.95;2.65;;;;;;;9.64;100.00;154949.16;4990701;28;20034;-73
2022/11/04 06:50:58;;;;;;;3.45;2.72;;;;;;;9.71;100.00;154965.84;4988735;28;20181;-72
2022/11/04 06:53:24;;;;;;;3.22;2.92;;;;;;;9.71;100.00;154967.13;5007065;28;20065;-72
2022/11/04 06:55:51;;;;;;;5.28;3.00;;;;;;;9.64;100.00;154947.91;4998664;28;20042;-72
2022/11/04 06:58:17;;;;;;;4.00;2.53;;;;;;;9.63;100.00;154945.38;5021852;28;20046;-72
2022/11/04 07:00:43;;;;;;;4.10;3.00;;;;;;;9.67;100.00;154955.59;5007718;28;20549;-73
2022/11/04 07:03:09;;;;;;;4.80;3.15;;;;;;;9.75;100.00;154977.38;4991316;28;20455;-72
2022/11/04 07:05:34;;;;;;;5.45;3.10;;;;;;;9.63;100.00;154945.38;4991393;28;20041;-71
2022/11/04 07:08:00;;;;;;;4.05;3.65;;;;;;;9.59;100.00;154935.06;4976399;28;20454;-73
2022/11/04 07:10:25;;;;;;;3.63;3.33;;;;;;;9.58;100.00;154933.78;5007706;28;20438;-72
2022/11/04 07:12:53;;;;;;;4.13;3.10;;;;;;;9.56;100.00;154928.66;5024036;28;20042;-72
2022/11/04 07:15:19;;;;;;;8.40;3.63;;;;;;;9.58;100.00;154932.53;4990275;28;20135;-73
2022/11/04 07:17:44;;;;;;;5.28;4.15;;;;;;;9.52;100.00;154919.69;5006703;28;20489;-72
2022/11/04 07:20:12;;;;;;;4.10;3.70;;;;;;;9.56;100.00;154928.66;4988392;28;20045;-72
2022/11/04 07:22:38;;;;;;;4.47;4.07;;;;;;;9.57;100.00;154931.25;4987301;28;20483;-72
2022/11/04 07:25:04;;;;;;;4.38;3.80;;;;;;;9.46;100.00;154904.31;5003924;28;20040;-73
2022/11/04 07:27:30;;;;;;;6.35;4.90;;;;;;;9.33;100.00;154871.00;4990151;28;20044;-73
2022/11/04 07:29:55;;;;;;;6.28;4.40;;;;;;;9.31;100.00;154865.88;4990566;28;20037;-73
2022/11/04 07:32:21;;;;;;;7.88;4.43;;;;;;;9.28;100.00;154858.16;4990632;28;20036;-73
2022/11/04 07:34:47;;;;;;;6.57;4.43;;;;;;;9.31;100.00;154867.13;4971554;28;20038;-73
2022/11/04 07:37:12;;;;;;;10.13;4.75;;;;;;;9.34;100.00;154874.84;5020384;28;20384;-73
2022/11/04 07:39:38;;;;;;;5.53;4.57;;;;;;;9.49;100.00;154912.03;4987046;28;20038;-73
2022/11/04 07:42:07;;;;;;;6.00;4.47;;;;;;;9.49;100.00;154910.72;5004352;28;20038;-73
2022/11/04 07:44:32;;;;;;;7.60;4.70;;;;;;;9.49;100.00;154912.03;4990715;28;20030;-73
2022/11/04 07:46:58;;;;;;;5.22;4.72;;;;;;;9.53;100.00;154922.28;5004517;28;20188;-73
2022/11/04 07:49:24;;;;;;;7.25;5.00;;;;;;;9.59;100.00;154936.38;5007388;28;20037;-73
2022/11/04 07:51:50;;;;;;;6.25;5.10;;;;;;;9.71;100.00;154967.13;5007280;28;20547;-72
2022/11/04 07:54:16;;;;;;;5.72;4.93;;;;;;;9.68;100.00;154958.16;5008173;28;20461;-72
2022/11/04 07:56:42;;;;;;;5.47;4.57;;;;;;;9.73;100.00;154970.97;5007901;28;20427;-72
2022/11/04 07:59:08;;;;;;;6.38;5.05;;;;;;;9.83;100.00;154996.66;5003855;28;20185;-72
2022/11/04 08:01:33;;;;;;;6.97;5.00;;;;;;;9.81;100.00;154991.47;4988146;28;20100;-72
2022/11/04 08:03:59;;;;;;;6.57;4.95;;;;;;;9.81;100.00;154991.47;4993609;28;20522;-72
2022/11/04 08:06:26;;;;;;;5.93;4.60;;;;;;;9.73;100.00;154972.25;5006947;28;20451;-72
2022/11/04 08:08:52;;;;;;;7.03;4.47;;;;;;;9.77;100.00;154979.97;4989957;28;20801;-72
2022/11/04 08:11:22;;;;;;;5.90;4.63;;;;;;;9.73;100.00;154972.25;5022444;28;20049;-71
2022/11/04 08:13:47;;;;;;;6.28;4.65;;;;;;;9.77;100.00;154979.97;4998904;28;20060;-73
2022/11/04 08:16:16;;;;;;;8.20;4.90;;;;;;;9.81;100.00;154991.47;4983896;28;20483;-72
2022/11/04 08:18:43;;;;;;;5.72;5.10;;;;;;;9.75;100.00;154976.09;4972471;28;20037;-72
2022/11/04 08:21:09;;;;;;;5.47;4.85;;;;;;;9.69;100.00;154962.00;4991122;28;20049;-72
2022/11/04 08:23:35;;;;;;;6.00;4.50;;;;;;;9.73;100.00;154970.97;4990509;28;20521;-72
2022/11/04 08:26:08;;;;;;;6.05;5.00;;;;;;;9.70;100.00;154964.59;5006458;28;20231;-72
2022/11/04 08:28:34;;;;;;;5.72;4.93;;;;;;;9.70;100.00;154963.28;5003738;28;20045;-72
2022/11/04 08:31:08;;;;;;;6.47;4.75;;;;;;;9.73;100.00;154970.97;4974802;28;20499;-73
2022/11/04 08:33:37;;;;;;;9.32;4.93;;;;;;;9.81;100.00;154991.47;4998828;28;20026;-73
2022/11/04 08:36:08;;;;;;;5.85;5.10;;;;;;;9.89;100.00;155010.75;4986448;28;20030;-72
2022/11/04 08:38:34;;;;;;;5.85;5.22;;;;;;;9.92;100.00;155019.69;4974792;28;20041;-73
2022/11/04 08:41:02;;;;;;;5.68;5.18;;;;;;;9.99;100.00;155035.13;5006800;28;20070;-72
2022/11/04 08:43:28;;;;;;;5.35;4.85;;;;;;;9.94;100.00;155023.56;5007972;28;20049;-72
2022/11/04 08:45:54;;;;;;;6.93;5.03;;;;;;;9.99;100.00;155036.38;4984249;28;20044;-72
2022/11/04 08:48:20;;;;;;;5.22;4.72;;;;;;;10.03;100.00;155045.38;5005576;28;20058;-72
2022/11/04 08:50:51;;;;;;;7.75;5.15;;;;;;;10.05;100.00;155050.50;4988339;28;20037;-72
2022/11/04 08:53:17;;;;;;;5.90;5.10;;;;;;;10.09;100.00;155062.03;5003721;28;20495;-72
2022/11/04 08:55:43;;;;;;;5.00;4.57;;;;;;;10.11;100.00;155067.19;4991971;28;20120;-72
2022/11/04 08:58:08;;;;;;;5.18;4.68;;;;;;;10.18;100.00;155083.84;5004975;28;20046;-72
2022/11/04 09:00:35;;;;;;;5.43;4.30;;;;;;;10.27;100.00;155106.94;5007514;28;20076;-72
2022/11/04 09:03:00;;;;;;;7.10;4.72;;;;;;;10.26;100.00;155103.06;5006120;28;20065;-72
2022/11/04 09:05:26;;;;;;;5.32;4.05;;;;;;;10.28;100.00;155109.53;4988727;28;20053;-72
2022/11/04 09:07:52;;;;;;;4.70;4.20;;;;;;;10.33;100.00;155121.09;5019321;28;20069;-73
2022/11/04 09:10:17;;;;;;;4.63;4.15;;;;;;;10.32;100.00;155119.81;4988222;28;20048;-72
2022/11/04 09:12:44;;;;;;;5.03;4.30;;;;;;;10.33;100.00;155121.09;4989802;28;20049;-72
2022/11/04 09:15:10;;;;;;;4.75;4.00;;;;;;;10.38;100.00;155132.63;4980261;28;20036;-72
2022/11/04 09:17:36;;;;;;;8.35;4.10;;;;;;;10.45;100.00;155150.59;5002924;28;20046;-72
2022/11/04 09:20:03;;;;;;;5.05;3.80;;;;;;;10.50;100.00;155164.69;5002958;28;20456;-72
2022/11/04 09:22:30;;;;;;;3.80;3.50;;;;;;;10.64;100.00;155199.38;5006549;28;20145;-73
2022/11/04 09:24:55;;;;;;;5.88;3.38;;;;;;;10.86;100.00;155254.50;4986598;28;20404;-72
2022/11/04 09:27:21;;;;;;;5.15;3.50;;;;;;;10.98;100.00;155284.06;4981943;28;20038;-72
2022/11/04 09:29:47;;;;;;;3.55;3.30;;;;;;;10.98;100.00;155284.06;4990975;28;20165;-72
2022/11/04 09:32:12;;;;;;;4.22;3.40;;;;;;;10.96;100.00;155278.88;4996492;28;20030;-72
2022/11/04 09:34:38;;;;;;;3.40;3.10;;;;;;;10.86;100.00;155254.50;4989128;28;20495;-73
2022/11/04 09:37:03;;;;;;;3.45;3.10;;;;;;;10.78;100.00;155232.72;4989099;28;20100;-72
2022/11/04 09:39:29;;;;;;;3.10;2.78;;;;;;;10.73;100.00;155221.16;5006128;28;20041;-73
2022/11/04 09:42:13;;;;;;;4.78;2.88;;;;;;;10.74;100.00;155222.41;5002558;28;20038;-72
2022/11/04 09:44:50;;;;;;;3.20;2.90;;;;;;;10.79;100.00;155235.25;4979082;28;20047;-73
2022/11/04 09:47:17;;;;;;;2.47;2.28;;;;;;;11.02;100.00;155293.00;4986566;28;20561;-73
2022/11/04 09:49:47;;;;;;;2.33;2.13;;;;;;;11.26;100.00;155354.63;4989296;28;20026;-72
2022/11/04 09:52:49;;;;;;;3.03;2.33;;;;;;;11.39;100.00;155386.69;4988361;28;20124;-73
2022/11/04 09:55:29;;;;;;;2.17;2.00;;;;;;;11.40;100.00;155388.00;4986595;28;20037;-74
2022/11/04 09:57:57;;;;;;;2.00;1.90;;;;;;;11.46;100.00;155403.41;5009188;28;20129;-75
2022/11/04 10:00:23;;;;;;;3.97;1.83;;;;;;;11.45;100.00;155402.13;4993133;28;20030;-73
2022/11/04 10:02:52;;;;;;;2.15;2.00;;;;;;;11.40;100.00;155389.28;5001261;28;20021;-72
2022/11/04 10:05:36;;;;;;;3.17;2.15;;;;;;;11.26;100.00;155353.31;4992369;28;20103;-73
2022/11/04 10:08:43;;;;;;;2.70;1.90;;;;;;;11.15;100.00;155325.09;5007599;28;20663;-72
2022/11/04 10:11:49;;;;;;;2.70;2.47;;;;;;;11.02;100.00;155293.00;4933811;29;20047;-72
2022/11/04 10:14:32;;;;;;;2.40;2.20;;;;;;;11.03;100.00;155295.56;5005909;28;20087;-73
2022/11/04 10:17:26;;;;;;;3.42;2.30;;;;;;;11.03;100.00;155296.84;4973229;28;20034;-73
2022/11/04 10:20:11;;;;;;;2.92;2.58;;;;;;;11.04;100.00;155299.44;4990403;28;20042;-73
2022/11/04 10:22:52;;;;;;;3.38;2.50;;;;;;;11.07;100.00;155305.84;5000892;28;20049;-73
2022/11/04 10:25:22;;;;;;;3.05;2.83;;;;;;;11.09;100.00;155312.28;5001729;28;20128;-73
2022/11/04 10:27:50;;;;;;;3.17;2.88;;;;;;;11.05;100.00;155300.72;5025504;28;20038;-73
2022/11/04 10:30:27;;;;;;;3.30;2.75;;;;;;;11.11;100.00;155316.09;5008792;28;20038;-73
2022/11/04 10:33:12;;;;;;;4.72;2.90;;;;;;;11.19;100.00;155336.66;4993088;28;20578;-73
2022/11/04 10:35:48;;;;;;;3.72;2.70;;;;;;;11.20;100.00;155339.19;5008585;28;20042;-73
2022/11/04 10:38:20;;;;;;;3.20;2.90;;;;;;;11.25;100.00;155350.78;5008809;28;20040;-73
2022/11/04 10:40:49;;;;;;;5.70;2.47;;;;;;;11.28;100.00;155359.78;5005122;28;20129;-73
2022/11/04 10:43:26;;;;;;;4.60;2.90;;;;;;;11.33;100.00;155370.03;5007684;28;20037;-73
2022/11/04 10:46:12;;;;;;;3.20;2.90;;;;;;;11.36;100.00;155379.00;5007879;28;20041;-73
2022/11/04 10:48:59;;;;;;;3.45;3.00;;;;;;;11.39;100.00;155386.69;5003344;28;20128;-73
2022/11/04 10:51:25;;;;;;;3.05;2.72;;;;;;;11.36;100.00;155379.00;5023913;28;20068;-73
2022/11/04 10:53:57;;;;;;;2.70;2.50;;;;;;;11.49;100.00;155412.38;4991594;28;20166;-74
2022/11/04 10:56:38;;;;;;;2.55;2.35;;;;;;;11.59;100.00;155435.50;4999034;28;20118;-73
2022/11/04 10:59:27;;;;;;;7.00;2.80;;;;;;;11.66;100.00;155453.47;5020676;28;20046;-73
2022/11/04 11:01:58;;;;;;;2.67;2.40;;;;;;;11.73;100.00;155471.41;5024081;28;20091;-73
2022/11/04 11:04:25;;;;;;;3.75;2.33;;;;;;;11.84;100.00;155499.66;4990211;28;20124;-73
2022/11/04 11:06:52;;;;;;;3.70;2.22;;;;;;;11.91;100.00;155515.16;4989851;28;20050;-73
2022/11/04 11:09:24;;;;;;;2.90;2.33;;;;;;;11.80;100.00;155489.41;5023724;28;20034;-73
2022/11/04 11:11:51;;;;;;;2.60;2.40;;;;;;;11.92;100.00;155517.69;4989510;28;20042;-73
2022/11/04 11:14:26;;;;;;;4.32;2.20;;;;;;;12.01;100.00;155542.09;4988968;28;20034;-73
2022/11/04 11:16:52;;;;;;;2.85;2.05;;;;;;;12.01;100.00;155540.81;5007576;28;20096;-73
2022/11/04 11:19:23;;;;;;;3.15;2.15;;;;;;;12.14;100.00;155572.94;4989596;28;20057;-72
2022/11/04 11:21:51;;;;;;;3.17;2.30;;;;;;;12.29;100.00;155610.19;5004768;28;20034;-73
2022/11/04 11:24:23;;;;;;;3.22;1.70;;;;;;;12.45;100.00;155651.25;4989948;28;20042;-73
2022/11/04 11:26:52;;;;;;;3.47;1.73;;;;;;;12.58;100.00;155684.69;4990985;28;20034;-72
2022/11/04 11:29:30;;;;;;;3.42;1.65;;;;;;;12.66;100.00;155703.94;4990381;28;20117;-73
2022/11/04 11:31:57;;;;;;;3.10;1.48;;;;;;;12.78;99.14;155733.47;4988017;28;20046;-73
2022/11/04 11:34:31;;;;;;;3.22;1.70;;;;;;;12.82;100.00;155745.03;4966229;28;20026;-73
2022/11/04 11:36:57;;;;;;;2.22;1.50;;;;;;;12.95;98.23;155777.16;4996552;28;20038;-74
2022/11/04 11:39:28;;;;;;;3.70;1.35;;;;;;;13.04;98.21;155799.00;4999653;28;20026;-74
2022/11/04 11:42:02;;;;;;;2.00;1.45;;;;;;;13.01;97.78;155791.28;5005352;28;20073;-74
2022/11/04 11:44:46;;;;;;;2.72;1.40;;;;;;;12.95;96.82;155775.88;5000227;28;20045;-72
2022/11/04 11:47:26;;;;;;;2.05;1.00;;;;;;;12.78;100.00;155733.47;5006089;28;20077;-73
2022/11/04 11:50:19;;;;;;;2.33;1.10;;;;;;;12.71;100.00;155715.50;4987966;28;20041;-73
2022/11/04 11:52:46;;;;;;;2.10;1.10;;;;;;;12.64;100.00;155700.09;5015827;28;20046;-73
2022/11/04 11:55:17;;;;;;;4.60;1.10;;;;;;;12.83;100.00;155747.63;5007446;28;20369;-73
2022/11/04 11:57:55;;;;;;;2.42;1.00;;;;;;;12.88;100.00;155759.16;5009980;28;20068;-73
2022/11/04 12:00:27;;;;;;;1.83;0.82;;;;;;;13.20;100.00;155840.16;5007657;28;20038;-73
2022/11/04 12:03:16;;;;;;;2.97;1.25;;;;;;;13.33;99.45;155872.28;4997966;28;20042;-73
2022/11/04 12:05:54;;;;;;;2.05;0.85;;;;;;;13.68;97.46;155958.44;4984933;28;20546;-73
2022/11/04 12:08:42;;;;;;;0.95;0.60;;;;;;;13.81;98.23;155991.84;5006678;28;20026;-73
2022/11/04 12:11:20;;;;;;;1.65;0.75;;;;;;;13.85;93.08;156000.84;5006903;28;20094;-73
2022/11/04 12:13:56;;;;;;;2.13;0.70;;;;;;;13.51;91.65;155916.03;5004970;28;20033;-73